Cookeville, TN (38505)

12:24 AM CST on December 04, 2016 (GMT -0600)
Millard Oakley STEM Center | | Change Station

Elev 1122 ft 36.17 °N, 85.51 °W | Updated 5 minutes ago

Rain
Rain
39.8 °F
Feels Like 40 °F
N
0.0
Wind Variable Wind from ENE
Gusts 0.0 mph

Today
High -- | Low -- °F
--% Chance of Precip.
Yesterday
High -- | Low -- °F
Precip. -- in
Pressure 30.17 in
Visibility 4.0 miles
Clouds Few 400 ft
Mostly Cloudy 5000 ft
Overcast 6000 ft
Windchill 40 °F
Dew Point 37 °F
Humidity 91%
Rainfall 0.10 in
Snow Depth Not available.
6:37 AM 4:27 PM
Waxing Crescent, 20% visible
SPECI KCSV 040604Z AUTO 09004KT 4SM UP BR FEW004 BKN050 OVC060 03/02 A3017 RMK AO2 RAE0556UPB0556 P0001 T00280017
Pressure 30.17 in
Visibility 4.0 miles
Clouds Few 400 ft
Mostly Cloudy 5000 ft
Overcast 6000 ft
Windchill 40 °F
Dew Point 37 °F
Humidity 91%
Rainfall 0.10 in
Snow Depth Not available.
6:37 AM 4:27 PM
Waxing Crescent, 20% visible
SPECI KCSV 040604Z AUTO 09004KT 4SM UP BR FEW004 BKN050 OVC060 03/02 A3017 RMK AO2 RAE0556UPB0556 P0001 T00280017

10-Day Weather Forecast

Almanac

Astronomy

Dec. 04, 2016 Rise Set
Actual Time
Civil Twilight
Nautical Twilight
Astronomical Twilight
Moon
Length of Visible Light
Length of Day
Tomorrow will be .
, % of the Moon is Illuminated

Today's Extremes

State Highs State Lows

Community

WunderPhotos

Upload Photos

1,955,588 photos uploaded!

WunderBlog® & News

Nearby

Air Quality

  Air Quality AQ Index Pollutant
Not available.

Snow Depth

Station Depth Elevation

Earthquake Activity

City Distance Mag. Time & Date
Minimum magnitude displayed is 2.5.

Coastal Water Temperatures

Place Temperature

Stations

Nearby Weather Stations

Station Location Temp. Windchill Dew Point Humidity Wind Precip. Elev Updated Type
                   

Watches & Warnings

There are currently no watches in effect.